sensor_id;sensor_type;location;lat;lon;timestamp;pressure;altitude;pressure_sealevel;temperature;humidity
52441;BME280;39611;46.062;8.950;2023-02-28T00:00:28;96864.31;;;3.22;97.72
52441;BME280;39611;46.062;8.950;2023-02-28T00:02:54;96862.47;;;3.22;95.85
52441;BME280;39611;46.062;8.950;2023-02-28T00:05:23;96861.69;;;3.22;96.55
52441;BME280;39611;46.062;8.950;2023-02-28T00:07:50;96863.88;;;3.00;96.83
52441;BME280;39611;46.062;8.950;2023-02-28T00:10:22;96857.91;;;3.36;95.89
52441;BME280;39611;46.062;8.950;2023-02-28T00:12:51;96865.88;;;3.04;95.64
52441;BME280;39611;46.062;8.950;2023-02-28T00:15:17;96869.00;;;3.13;97.46
52441;BME280;39611;46.062;8.950;2023-02-28T00:17:44;96874.06;;;3.08;97.63
52441;BME280;39611;46.062;8.950;2023-02-28T00:20:12;96872.78;;;3.17;96.45
52441;BME280;39611;46.062;8.950;2023-02-28T00:22:41;96873.06;;;3.09;95.67
52441;BME280;39611;46.062;8.950;2023-02-28T00:25:09;96871.88;;;3.05;96.38
52441;BME280;39611;46.062;8.950;2023-02-28T00:27:37;96870.66;;;3.08;96.70
52441;BME280;39611;46.062;8.950;2023-02-28T00:30:05;96877.13;;;3.23;95.80
52441;BME280;39611;46.062;8.950;2023-02-28T00:32:32;96875.09;;;3.07;97.64
52441;BME280;39611;46.062;8.950;2023-02-28T00:35:01;96871.28;;;3.03;97.33
52441;BME280;39611;46.062;8.950;2023-02-28T00:37:27;96872.31;;;3.02;96.28
52441;BME280;39611;46.062;8.950;2023-02-28T00:39:54;96874.66;;;3.10;96.90
52441;BME280;39611;46.062;8.950;2023-02-28T00:42:20;96881.03;;;2.96;95.71
52441;BME280;39611;46.062;8.950;2023-02-28T00:44:47;96872.75;;;2.99;95.68
52441;BME280;39611;46.062;8.950;2023-02-28T00:47:13;96878.41;;;2.96;96.23
52441;BME280;39611;46.062;8.950;2023-02-28T00:49:40;96872.97;;;2.97;97.14
52441;BME280;39611;46.062;8.950;2023-02-28T00:52:07;96881.91;;;3.08;96.97
52441;BME280;39611;46.062;8.950;2023-02-28T00:54:33;96874.16;;;3.20;97.68
52441;BME280;39611;46.062;8.950;2023-02-28T00:57:00;96874.47;;;3.30;97.50
52441;BME280;39611;46.062;8.950;2023-02-28T00:59:26;96876.34;;;3.23;98.73
52441;BME280;39611;46.062;8.950;2023-02-28T01:01:53;96872.66;;;3.31;98.52
52441;BME280;39611;46.062;8.950;2023-02-28T01:04:19;96884.13;;;3.30;99.39
52441;BME280;39611;46.062;8.950;2023-02-28T01:06:46;96878.47;;;3.33;100.00
52441;BME280;39611;46.062;8.950;2023-02-28T01:09:12;96870.94;;;3.43;99.96
52441;BME280;39611;46.062;8.950;2023-02-28T01:11:39;96869.84;;;3.50;99.11
52441;BME280;39611;46.062;8.950;2023-02-28T01:14:08;96872.38;;;3.57;97.98
52441;BME280;39611;46.062;8.950;2023-02-28T01:16:34;96864.66;;;3.44;99.83
52441;BME280;39611;46.062;8.950;2023-02-28T01:19:01;96872.00;;;3.35;100.00
52441;BME280;39611;46.062;8.950;2023-02-28T01:21:27;96868.00;;;3.33;100.00
52441;BME280;39611;46.062;8.950;2023-02-28T01:23:57;96873.25;;;3.33;100.00
52441;BME280;39611;46.062;8.950;2023-02-28T01:26:24;96868.00;;;3.33;99.74
52441;BME280;39611;46.062;8.950;2023-02-28T01:28:51;96859.88;;;3.41;100.00
52441;BME280;39611;46.062;8.950;2023-02-28T01:31:19;96866.34;;;3.38;100.00
52441;BME280;39611;46.062;8.950;2023-02-28T01:33:46;96863.50;;;3.40;100.00
52441;BME280;39611;46.062;8.950;2023-02-28T01:36:16;96867.94;;;3.39;100.00
52441;BME280;39611;46.062;8.950;2023-02-28T01:38:43;96859.88;;;3.41;100.00
52441;BME280;39611;46.062;8.950;2023-02-28T01:41:19;96856.22;;;3.42;100.00
52441;BME280;39611;46.062;8.950;2023-02-28T01:46:13;96859.13;;;3.34;100.00
52441;BME280;39611;46.062;8.950;2023-02-28T01:48:47;96860.47;;;3.24;100.00
52441;BME280;39611;46.062;8.950;2023-02-28T01:51:18;96851.59;;;3.25;100.00
52441;BME280;39611;46.062;8.950;2023-02-28T01:53:54;96858.91;;;3.17;100.00
52441;BME280;39611;46.062;8.950;2023-02-28T01:56:29;96861.75;;;3.15;100.00
52441;BME280;39611;46.062;8.950;2023-02-28T01:58:56;96851.06;;;3.17;100.00
52441;BME280;39611;46.062;8.950;2023-02-28T02:01:24;96853.09;;;3.15;100.00
52441;BME280;39611;46.062;8.950;2023-02-28T02:03:57;96854.91;;;3.14;100.00
52441;BME280;39611;46.062;8.950;2023-02-28T02:06:32;96852.50;;;3.13;100.00
52441;BME280;39611;46.062;8.950;2023-02-28T02:09:00;96863.72;;;3.20;100.00
52441;BME280;39611;46.062;8.950;2023-02-28T02:11:27;96861.69;;;3.22;100.00
52441;BME280;39611;46.062;8.950;2023-02-28T02:14:22;96862.03;;;3.25;100.00
52441;BME280;39611;46.062;8.950;2023-02-28T02:17:16;96857.69;;;3.19;100.00
52441;BME280;39611;46.062;8.950;2023-02-28T02:36:49;96853.47;;;3.18;100.00
52441;BME280;39611;46.062;8.950;2023-02-28T02:41:54;96859.78;;;3.29;99.14
52441;BME280;39611;46.062;8.950;2023-02-28T02:44:29;96857.91;;;3.18;98.23
52441;BME280;39611;46.062;8.950;2023-02-28T02:47:12;96865.72;;;3.18;100.00
52441;BME280;39611;46.062;8.950;2023-02-28T02:49:45;96859.56;;;3.12;100.00
52441;BME280;39611;46.062;8.950;2023-02-28T02:52:16;96865.38;;;3.14;100.00
52441;BME280;39611;46.062;8.950;2023-02-28T02:54:46;96861.38;;;3.12;100.00
52441;BME280;39611;46.062;8.950;2023-02-28T02:57:22;96860.56;;;3.11;100.00
52441;BME280;39611;46.062;8.950;2023-02-28T02:59:51;96857.94;;;3.11;100.00
52441;BME280;39611;46.062;8.950;2023-02-28T03:02:20;96861.00;;;3.08;100.00
52441;BME280;39611;46.062;8.950;2023-02-28T03:04:53;96857.63;;;3.01;100.00
52441;BME280;39611;46.062;8.950;2023-02-28T03:07:22;96853.59;;;3.05;100.00
52441;BME280;39611;46.062;8.950;2023-02-28T03:09:51;96850.53;;;3.08;100.00
52441;BME280;39611;46.062;8.950;2023-02-28T03:12:19;96851.72;;;3.12;100.00
52441;BME280;39611;46.062;8.950;2023-02-28T03:15:06;96847.28;;;3.13;100.00
52441;BME280;39611;46.062;8.950;2023-02-28T03:22:43;96857.75;;;3.13;100.00
52441;BME280;39611;46.062;8.950;2023-02-28T03:25:29;96845.75;;;3.05;100.00
52441;BME280;39611;46.062;8.950;2023-02-28T03:28:08;96853.59;;;3.05;100.00
52441;BME280;39611;46.062;8.950;2023-02-28T03:30:39;96847.78;;;3.03;100.00
52441;BME280;39611;46.062;8.950;2023-02-28T03:33:15;96849.78;;;3.01;100.00
52441;BME280;39611;46.062;8.950;2023-02-28T03:35:47;96862.72;;;2.96;100.00
52441;BME280;39611;46.062;8.950;2023-02-28T03:38:19;96857.13;;;2.92;100.00
52441;BME280;39611;46.062;8.950;2023-02-28T03:40:55;96864.69;;;3.00;100.00
52441;BME280;39611;46.062;8.950;2023-02-28T03:43:29;96863.88;;;3.00;100.00
52441;BME280;39611;46.062;8.950;2023-02-28T03:46:00;96865.28;;;3.02;100.00
52441;BME280;39611;46.062;8.950;2023-02-28T03:48:41;96866.66;;;3.05;100.00
52441;BME280;39611;46.062;8.950;2023-02-28T03:51:14;96865.88;;;3.04;100.00
52441;BME280;39611;46.062;8.950;2023-02-28T03:53:46;96866.66;;;3.05;100.00
52441;BME280;39611;46.062;8.950;2023-02-28T03:56:18;96859.03;;;3.03;100.00
52441;BME280;39611;46.062;8.950;2023-02-28T03:58:54;96866.84;;;3.03;100.00
52441;BME280;39611;46.062;8.950;2023-02-28T04:01:30;96866.84;;;3.03;100.00
52441;BME280;39611;46.062;8.950;2023-02-28T04:03:58;96872.75;;;2.99;100.00
52441;BME280;39611;46.062;8.950;2023-02-28T04:06:25;96882.03;;;2.95;100.00
52441;BME280;39611;46.062;8.950;2023-02-28T04:08:52;96878.81;;;2.93;100.00
52441;BME280;39611;46.062;8.950;2023-02-28T04:11:21;96873.59;;;2.93;100.00
52441;BME280;39611;46.062;8.950;2023-02-28T04:13:48;96877.59;;;2.95;100.00
52441;BME280;39611;46.062;8.950;2023-02-28T04:16:15;96865.91;;;2.98;100.00
52441;BME280;39611;46.062;8.950;2023-02-28T04:19:05;96867.09;;;3.02;100.00
52441;BME280;39611;46.062;8.950;2023-02-28T04:24:00;96867.97;;;2.96;100.00
52441;BME280;39611;46.062;8.950;2023-02-28T04:26:30;96865.91;;;2.98;100.00
52441;BME280;39611;46.062;8.950;2023-02-28T04:28:57;96879.84;;;2.92;100.00
52441;BME280;39611;46.062;8.950;2023-02-28T04:31:24;96870.78;;;2.94;100.00
52441;BME280;39611;46.062;8.950;2023-02-28T04:33:51;96871.13;;;2.98;100.00
52441;BME280;39611;46.062;8.950;2023-02-28T04:36:17;96870.19;;;2.92;100.00
52441;BME280;39611;46.062;8.950;2023-02-28T04:38:45;96882.03;;;2.95;100.00
52441;BME280;39611;46.062;8.950;2023-02-28T04:41:12;96875.84;;;2.89;100.00
52441;BME280;39611;46.062;8.950;2023-02-28T04:43:39;96885.44;;;2.95;100.00
52441;BME280;39611;46.062;8.950;2023-02-28T04:46:06;96882.63;;;2.97;100.00
52441;BME280;39611;46.062;8.950;2023-02-28T04:48:36;96889.00;;;3.01;100.00
52441;BME280;39611;46.062;8.950;2023-02-28T04:51:09;96887.38;;;3.06;100.00
52441;BME280;39611;46.062;8.950;2023-02-28T04:53:37;96888.00;;;3.02;100.00
52441;BME280;39611;46.062;8.950;2023-02-28T04:56:06;96892.63;;;3.00;100.00
52441;BME280;39611;46.062;8.950;2023-02-28T04:58:34;96887.56;;;3.05;100.00
52441;BME280;39611;46.062;8.950;2023-02-28T05:01:04;96886.34;;;3.08;100.00
52441;BME280;39611;46.062;8.950;2023-02-28T05:03:39;96891.38;;;3.09;100.00
52441;BME280;39611;46.062;8.950;2023-02-28T05:06:11;96892.78;;;3.05;100.00
52441;BME280;39611;46.062;8.950;2023-02-28T05:08:38;96902.50;;;2.98;100.00
52441;BME280;39611;46.062;8.950;2023-02-28T05:11:18;96894.22;;;3.01;100.00
52441;BME280;39611;46.062;8.950;2023-02-28T05:13:45;96898.88;;;2.99;100.00
52441;BME280;39611;46.062;8.950;2023-02-28T05:16:12;96898.88;;;2.99;100.00
52441;BME280;39611;46.062;8.950;2023-02-28T05:18:39;96898.09;;;2.98;100.00
52441;BME280;39611;46.062;8.950;2023-02-28T05:21:05;96903.53;;;2.97;100.00
52441;BME280;39611;46.062;8.950;2023-02-28T05:23:32;96898.88;;;2.99;100.00
52441;BME280;39611;46.062;8.950;2023-02-28T05:25:58;96896.19;;;3.05;100.00
52441;BME280;39611;46.062;8.950;2023-02-28T05:28:25;96906.13;;;2.97;100.00
52441;BME280;39611;46.062;8.950;2023-02-28T05:30:51;96902.75;;;2.90;100.00
52441;BME280;39611;46.062;8.950;2023-02-28T05:33:18;96903.38;;;2.92;100.00
52441;BME280;39611;46.062;8.950;2023-02-28T05:35:44;96902.16;;;2.88;100.00
52441;BME280;39611;46.062;8.950;2023-02-28T05:38:11;96894.94;;;2.90;100.00
52441;BME280;39611;46.062;8.950;2023-02-28T05:40:38;96905.53;;;2.95;100.00
52441;BME280;39611;46.062;8.950;2023-02-28T05:43:05;96894.28;;;2.94;100.00
52441;BME280;39611;46.062;8.950;2023-02-28T05:45:32;96891.59;;;3.01;100.00
52441;BME280;39611;46.062;8.950;2023-02-28T05:47:58;96891.72;;;2.88;100.00
52441;BME280;39611;46.062;8.950;2023-02-28T05:50:25;96889.59;;;3.03;100.00
52441;BME280;39611;46.062;8.950;2023-02-28T05:52:52;96891.47;;;2.96;100.00
52441;BME280;39611;46.062;8.950;2023-02-28T05:55:18;96894.09;;;2.96;100.00
52441;BME280;39611;46.062;8.950;2023-02-28T05:57:45;96895.69;;;2.97;100.00
52441;BME280;39611;46.062;8.950;2023-02-28T06:00:12;96891.59;;;3.01;100.00
52441;BME280;39611;46.062;8.950;2023-02-28T06:02:41;96889.88;;;2.95;100.00
52441;BME280;39611;46.062;8.950;2023-02-28T06:05:13;96892.94;;;2.85;100.00
52441;BME280;39611;46.062;8.950;2023-02-28T06:07:40;96901.00;;;2.83;100.00
52441;BME280;39611;46.062;8.950;2023-02-28T06:10:07;96886.72;;;2.86;100.00
52441;BME280;39611;46.062;8.950;2023-02-28T06:12:33;96889.94;;;2.88;100.00
52441;BME280;39611;46.062;8.950;2023-02-28T06:15:00;96889.28;;;2.93;100.00
52441;BME280;39611;46.062;8.950;2023-02-28T06:17:26;96897.34;;;2.91;100.00
52441;BME280;39611;46.062;8.950;2023-02-28T06:19:53;96890.09;;;2.93;100.00
52441;BME280;39611;46.062;8.950;2023-02-28T06:22:19;96896.13;;;2.94;100.00
52441;BME280;39611;46.062;8.950;2023-02-28T06:24:46;96900.03;;;3.03;100.00
52441;BME280;39611;46.062;8.950;2023-02-28T06:27:12;96902.66;;;3.03;100.00
52441;BME280;39611;46.062;8.950;2023-02-28T06:29:38;96917.50;;;3.09;100.00
52441;BME280;39611;46.062;8.950;2023-02-28T06:32:08;96909.28;;;3.05;100.00
52441;BME280;39611;46.062;8.950;2023-02-28T06:34:35;96915.88;;;3.08;100.00
52441;BME280;39611;46.062;8.950;2023-02-28T06:37:02;96916.69;;;3.09;100.00
52441;BME280;39611;46.062;8.950;2023-02-28T06:39:30;96919.25;;;3.15;100.00
52441;BME280;39611;46.062;8.950;2023-02-28T06:41:56;96921.66;;;3.17;100.00
52441;BME280;39611;46.062;8.950;2023-02-28T06:44:24;96925.28;;;3.16;100.00
52441;BME280;39611;46.062;8.950;2023-02-28T06:46:50;96929.59;;;3.28;100.00
52441;BME280;39611;46.062;8.950;2023-02-28T06:49:17;96931.88;;;3.18;100.00
52441;BME280;39611;46.062;8.950;2023-02-28T06:51:44;96932.16;;;3.10;100.00
52441;BME280;39611;46.062;8.950;2023-02-28T06:54:11;96934.03;;;3.03;100.00
52441;BME280;39611;46.062;8.950;2023-02-28T06:56:38;96928.53;;;3.11;100.00
52441;BME280;39611;46.062;8.950;2023-02-28T06:59:05;96929.75;;;3.09;100.00
52441;BME280;39611;46.062;8.950;2023-02-28T07:01:32;96932.63;;;3.00;100.00
52441;BME280;39611;46.062;8.950;2023-02-28T07:04:00;96938.25;;;3.04;100.00
52441;BME280;39611;46.062;8.950;2023-02-28T07:06:27;96934.13;;;2.90;100.00
52441;BME280;39611;46.062;8.950;2023-02-28T07:08:54;96936.63;;;3.03;100.00
52441;BME280;39611;46.062;8.950;2023-02-28T07:11:22;96941.69;;;2.98;100.00
52441;BME280;39611;46.062;8.950;2023-02-28T07:13:56;96939.09;;;2.98;100.00
52441;BME280;39611;46.062;8.950;2023-02-28T07:16:23;96936.88;;;3.01;100.00
52441;BME280;39611;46.062;8.950;2023-02-28T07:18:54;96944.19;;;3.11;100.00
52441;BME280;39611;46.062;8.950;2023-02-28T07:21:22;96944.97;;;3.18;100.00
52441;BME280;39611;46.062;8.950;2023-02-28T07:23:49;96955.38;;;3.25;100.00
52441;BME280;39611;46.062;8.950;2023-02-28T07:26:17;96954.56;;;3.24;100.00
52441;BME280;39611;46.062;8.950;2023-02-28T07:28:46;96958.66;;;3.39;100.00
52441;BME280;39611;46.062;8.950;2023-02-28T07:31:14;96955.47;;;3.37;100.00
52441;BME280;39611;46.062;8.950;2023-02-28T07:33:41;96964.53;;;3.34;100.00
52441;BME280;39611;46.062;8.950;2023-02-28T07:36:10;96962.16;;;3.33;100.00
52441;BME280;39611;46.062;8.950;2023-02-28T07:38:42;96963.56;;;3.28;100.00
52441;BME280;39611;46.062;8.950;2023-02-28T07:41:18;96971.81;;;3.32;100.00
52441;BME280;39611;46.062;8.950;2023-02-28T07:43:45;96957.41;;;3.23;100.00
52441;BME280;39611;46.062;8.950;2023-02-28T07:46:14;96962.41;;;3.24;100.00
52441;BME280;39611;46.062;8.950;2023-02-28T07:48:44;96964.59;;;3.27;100.00
52441;BME280;39611;46.062;8.950;2023-02-28T07:51:11;96954.00;;;3.22;100.00
52441;BME280;39611;46.062;8.950;2023-02-28T07:53:38;96966.94;;;3.36;100.00
52441;BME280;39611;46.062;8.950;2023-02-28T07:56:05;96960.69;;;3.37;100.00
52441;BME280;39611;46.062;8.950;2023-02-28T07:58:31;96963.25;;;3.43;100.00
52441;BME280;39611;46.062;8.950;2023-02-28T08:01:08;96969.28;;;3.44;100.00
52441;BME280;39611;46.062;8.950;2023-02-28T08:03:35;96969.72;;;3.41;100.00
52441;BME280;39611;46.062;8.950;2023-02-28T08:06:07;96970.72;;;3.40;100.00
52441;BME280;39611;46.062;8.950;2023-02-28T08:08:33;96973.94;;;3.60;99.43
52441;BME280;39611;46.062;8.950;2023-02-28T08:11:01;96970.72;;;3.40;99.34
52441;BME280;39611;46.062;8.950;2023-02-28T08:13:29;96975.91;;;3.46;99.47
52441;BME280;39611;46.062;8.950;2023-02-28T08:15:56;96968.63;;;3.48;99.78
52441;BME280;39611;46.062;8.950;2023-02-28T08:18:23;96970.97;;;3.57;100.00
52441;BME280;39611;46.062;8.950;2023-02-28T08:20:49;96983.53;;;3.48;99.24
52441;BME280;39611;46.062;8.950;2023-02-28T08:23:16;96986.94;;;3.48;100.00
52441;BME280;39611;46.062;8.950;2023-02-28T08:25:42;96977.44;;;3.54;100.00
52441;BME280;39611;46.062;8.950;2023-02-28T08:28:09;96982.03;;;3.59;100.00
52441;BME280;39611;46.062;8.950;2023-02-28T08:30:35;96979.03;;;3.55;100.00
52441;BME280;39611;46.062;8.950;2023-02-28T08:33:02;96985.09;;;3.56;99.69
52441;BME280;39611;46.062;8.950;2023-02-28T08:35:28;96978.63;;;3.58;97.47
52441;BME280;39611;46.062;8.950;2023-02-28T08:37:55;96972.88;;;3.68;97.80
52441;BME280;39611;46.062;8.950;2023-02-28T08:40:21;96978.66;;;3.77;96.63
52441;BME280;39611;46.062;8.950;2023-02-28T08:42:48;96970.50;;;3.85;95.65
52441;BME280;39611;46.062;8.950;2023-02-28T08:45:14;96974.56;;;3.81;97.49
52441;BME280;39611;46.062;8.950;2023-02-28T08:47:41;96978.34;;;3.85;95.06
52441;BME280;39611;46.062;8.950;2023-02-28T08:50:08;96974.22;;;3.96;92.96
52441;BME280;39611;46.062;8.950;2023-02-28T08:52:34;96973.47;;;3.88;93.84
52441;BME280;39611;46.062;8.950;2023-02-28T08:55:01;96967.28;;;3.83;95.60
52441;BME280;39611;46.062;8.950;2023-02-28T08:57:27;96970.78;;;3.77;95.72
52441;BME280;39611;46.062;8.950;2023-02-28T08:59:54;96970.50;;;3.66;96.14
52441;BME280;39611;46.062;8.950;2023-02-28T09:02:20;96969.41;;;3.74;95.50
52441;BME280;39611;46.062;8.950;2023-02-28T09:04:47;96968.22;;;3.70;94.85
52441;BME280;39611;46.062;8.950;2023-02-28T09:07:13;96975.00;;;3.78;94.10
52441;BME280;39611;46.062;8.950;2023-02-28T09:09:40;96976.81;;;3.96;92.50
52441;BME280;39611;46.062;8.950;2023-02-28T09:12:22;96973.78;;;3.99;96.33
52441;BME280;39611;46.062;8.950;2023-02-28T09:14:49;96978.00;;;4.00;95.99
52441;BME280;39611;46.062;8.950;2023-02-28T09:17:16;96984.09;;;3.93;96.21
52441;BME280;39611;46.062;8.950;2023-02-28T09:19:43;96988.63;;;4.05;95.91
52441;BME280;39611;46.062;8.950;2023-02-28T09:22:10;96987.00;;;4.04;98.47
52441;BME280;39611;46.062;8.950;2023-02-28T09:24:37;96992.25;;;4.04;97.75
52441;BME280;39611;46.062;8.950;2023-02-28T09:27:10;96995.09;;;4.21;96.38
52441;BME280;39611;46.062;8.950;2023-02-28T09:29:37;96996.88;;;4.20;96.00
52441;BME280;39611;46.062;8.950;2023-02-28T09:32:03;96999.66;;;4.25;96.84
52441;BME280;39611;46.062;8.950;2023-02-28T09:34:32;96999.28;;;4.22;98.15
52441;BME280;39611;46.062;8.950;2023-02-28T09:36:58;97001.25;;;4.26;96.71
52441;BME280;39611;46.062;8.950;2023-02-28T09:39:25;97001.63;;;4.30;97.29
52441;BME280;39611;46.062;8.950;2023-02-28T09:41:54;97005.13;;;4.24;96.66
52441;BME280;39611;46.062;8.950;2023-02-28T09:44:35;97005.13;;;4.24;97.06
52441;BME280;39611;46.062;8.950;2023-02-28T09:47:27;97003.94;;;4.20;96.08
52441;BME280;39611;46.062;8.950;2023-02-28T09:49:59;97010.34;;;4.24;95.79
52441;BME280;39611;46.062;8.950;2023-02-28T09:52:31;97007.88;;;4.29;96.28
52441;BME280;39611;46.062;8.950;2023-02-28T09:55:19;97010.66;;;4.34;96.69
52441;BME280;39611;46.062;8.950;2023-02-28T09:57:46;97010.81;;;4.21;95.21
52441;BME280;39611;46.062;8.950;2023-02-28T10:00:23;97008.88;;;4.28;94.66
52441;BME280;39611;46.062;8.950;2023-02-28T10:05:43;97009.72;;;4.28;93.97
52441;BME280;39611;46.062;8.950;2023-02-28T10:08:19;97004.22;;;4.30;92.60
52441;BME280;39611;46.062;8.950;2023-02-28T10:10:55;97001.31;;;4.38;93.30
52441;BME280;39611;46.062;8.950;2023-02-28T10:13:33;97003.41;;;4.48;87.89
52441;BME280;39611;46.062;8.950;2023-02-28T10:16:38;97009.72;;;4.58;90.57
52441;BME280;39611;46.062;8.950;2023-02-28T10:19:45;97001.66;;;4.60;86.92
52441;BME280;39611;46.062;8.950;2023-02-28T10:22:03;97007.59;;;4.37;88.88
52441;BME280;39611;46.062;8.950;2023-02-28T10:24:46;97009.69;;;4.47;89.19
52441;BME280;39611;46.062;8.950;2023-02-28T10:27:19;97007.06;;;4.47;89.37
52441;BME280;39611;46.062;8.950;2023-02-28T10:29:46;97001.28;;;4.56;90.63
52441;BME280;39611;46.062;8.950;2023-02-28T10:32:17;97003.19;;;4.79;89.68
52441;BME280;39611;46.062;8.950;2023-02-28T10:34:44;97001.81;;;4.77;89.07
52441;BME280;39611;46.062;8.950;2023-02-28T10:37:11;97003.56;;;4.83;89.46
52441;BME280;39611;46.062;8.950;2023-02-28T10:39:46;96997.34;;;4.66;88.42
52441;BME280;39611;46.062;8.950;2023-02-28T10:42:27;97004.16;;;4.67;87.61
52441;BME280;39611;46.062;8.950;2023-02-28T10:45:13;97004.50;;;4.58;87.08
52441;BME280;39611;46.062;8.950;2023-02-28T10:47:58;96995.84;;;5.00;86.28
52441;BME280;39611;46.062;8.950;2023-02-28T10:50:44;96994.34;;;4.92;87.35
52441;BME280;39611;46.062;8.950;2023-02-28T10:58:47;97001.75;;;4.95;84.86
52441;BME280;39611;46.062;8.950;2023-02-28T11:03:51;96985.44;;;5.35;86.29
52441;BME280;39611;46.062;8.950;2023-02-28T11:06:21;96992.53;;;5.46;85.80
52441;BME280;39611;46.062;8.950;2023-02-28T11:08:51;96990.25;;;5.50;84.17
52441;BME280;39611;46.062;8.950;2023-02-28T11:11:20;96986.47;;;5.69;84.58
52441;BME280;39611;46.062;8.950;2023-02-28T11:13:47;96982.72;;;5.77;83.34
52441;BME280;39611;46.062;8.950;2023-02-28T11:16:16;96979.72;;;5.85;82.55
52441;BME280;39611;46.062;8.950;2023-02-28T11:18:50;96981.09;;;5.88;82.67
52441;BME280;39611;46.062;8.950;2023-02-28T11:21:25;96976.19;;;5.68;80.74
52441;BME280;39611;46.062;8.950;2023-02-28T11:24:44;96977.13;;;5.74;82.57
52441;BME280;39611;46.062;8.950;2023-02-28T11:26:47;96981.91;;;5.65;82.88
52441;BME280;39611;46.062;8.950;2023-02-28T11:29:23;96968.00;;;5.64;82.42
52441;BME280;39611;46.062;8.950;2023-02-28T11:32:12;96966.16;;;5.77;82.40
52441;BME280;39611;46.062;8.950;2023-02-28T11:34:41;96960.56;;;5.73;82.60
52441;BME280;39611;46.062;8.950;2023-02-28T11:37:16;96957.03;;;5.79;82.43
52441;BME280;39611;46.062;8.950;2023-02-28T11:39:44;96954.88;;;5.76;80.03
52441;BME280;39611;46.062;8.950;2023-02-28T11:42:23;96955.44;;;5.66;78.76
52441;BME280;39611;46.062;8.950;2023-02-28T11:47:36;96939.13;;;5.64;78.87
52441;BME280;39611;46.062;8.950;2023-02-28T11:50:42;96943.91;;;5.79;79.61
52441;BME280;39611;46.062;8.950;2023-02-28T11:55:54;96936.59;;;5.81;78.65
52441;BME280;39611;46.062;8.950;2023-02-28T12:01:40;96932.91;;;6.06;79.72
52441;BME280;39611;46.062;8.950;2023-02-28T12:06:47;96924.16;;;6.00;77.06
52441;BME280;39611;46.062;8.950;2023-02-28T12:09:33;96915.47;;;6.00;76.53
52441;BME280;39611;46.062;8.950;2023-02-28T12:18:11;96896.34;;;6.16;75.74
52441;BME280;39611;46.062;8.950;2023-02-28T12:20:57;96897.03;;;6.11;74.84
52441;BME280;39611;46.062;8.950;2023-02-28T12:28:51;96892.25;;;6.20;73.78
52441;BME280;39611;46.062;8.950;2023-02-28T12:31:31;96883.50;;;6.31;74.18
52441;BME280;39611;46.062;8.950;2023-02-28T12:34:06;96877.47;;;6.48;73.47
52441;BME280;39611;46.062;8.950;2023-02-28T12:36:35;96876.50;;;6.37;72.35
52441;BME280;39611;46.062;8.950;2023-02-28T12:39:09;96871.44;;;6.47;73.85
52441;BME280;39611;46.062;8.950;2023-02-28T12:41:42;96869.50;;;6.43;71.47
52441;BME280;39611;46.062;8.950;2023-02-28T12:44:13;96865.50;;;6.23;70.83
52441;BME280;39611;46.062;8.950;2023-02-28T12:46:44;96869.69;;;6.24;71.27
52441;BME280;39611;46.062;8.950;2023-02-28T12:52:00;96855.34;;;6.44;72.77
52441;BME280;39611;46.062;8.950;2023-02-28T12:54:36;96857.50;;;6.47;71.88
52441;BME280;39611;46.062;8.950;2023-02-28T12:59:52;96850.38;;;6.30;69.48
52441;BME280;39611;46.062;8.950;2023-02-28T13:05:25;96840.47;;;6.49;68.76
52441;BME280;39611;46.062;8.950;2023-02-28T13:10:16;96833.31;;;6.62;70.08
52441;BME280;39611;46.062;8.950;2023-02-28T13:12:52;96835.28;;;6.71;70.32
52441;BME280;39611;46.062;8.950;2023-02-28T13:15:25;96832.91;;;6.70;69.49
52441;BME280;39611;46.062;8.950;2023-02-28T13:17:56;96829.25;;;6.54;66.50
52441;BME280;39611;46.062;8.950;2023-02-28T13:20:35;96823.81;;;6.61;68.08
52441;BME280;39611;46.062;8.950;2023-02-28T13:23:02;96830.34;;;6.92;69.34
52441;BME280;39611;46.062;8.950;2023-02-28T13:28:02;96821.69;;;7.13;67.55
52441;BME280;39611;46.062;8.950;2023-02-28T13:35:46;96820.72;;;6.81;65.35
52441;BME280;39611;46.062;8.950;2023-02-28T13:38:21;96816.97;;;6.93;65.70
52441;BME280;39611;46.062;8.950;2023-02-28T13:40:48;96811.50;;;7.00;65.15
52441;BME280;39611;46.062;8.950;2023-02-28T13:43:16;96806.97;;;7.12;67.51
52441;BME280;39611;46.062;8.950;2023-02-28T13:46:11;96812.63;;;7.04;66.32
52441;BME280;39611;46.062;8.950;2023-02-28T13:48:38;96807.72;;;6.91;65.02
52441;BME280;39611;46.062;8.950;2023-02-28T13:51:41;96807.38;;;7.04;67.71
52441;BME280;39611;46.062;8.950;2023-02-28T14:00:09;96800.66;;;7.13;68.30
52441;BME280;39611;46.062;8.950;2023-02-28T14:03:24;96803.84;;;7.15;66.64
52441;BME280;39611;46.062;8.950;2023-02-28T14:06:16;96797.97;;;7.08;68.11
52441;BME280;39611;46.062;8.950;2023-02-28T14:11:34;96802.41;;;7.08;66.77
52441;BME280;39611;46.062;8.950;2023-02-28T14:14:03;96801.06;;;7.05;66.96
52441;BME280;39611;46.062;8.950;2023-02-28T14:16:44;96803.41;;;7.02;67.81
52441;BME280;39611;46.062;8.950;2023-02-28T14:19:13;96796.78;;;6.99;69.82
52441;BME280;39611;46.062;8.950;2023-02-28T14:38:05;96785.41;;;6.76;70.12
52441;BME280;39611;46.062;8.950;2023-02-28T14:40:34;96781.03;;;6.65;69.87
52441;BME280;39611;46.062;8.950;2023-02-28T14:43:03;96784.22;;;6.67;69.66
52441;BME280;39611;46.062;8.950;2023-02-28T14:45:33;96779.53;;;6.69;70.89
52441;BME280;39611;46.062;8.950;2023-02-28T14:48:01;96770.28;;;6.67;70.16
52441;BME280;39611;46.062;8.950;2023-02-28T14:50:34;96774.50;;;6.68;71.07
52441;BME280;39611;46.062;8.950;2023-02-28T14:53:02;96772.09;;;6.66;70.17
52441;BME280;39611;46.062;8.950;2023-02-28T14:55:34;96767.66;;;6.67;70.08
52441;BME280;39611;46.062;8.950;2023-02-28T14:58:03;96770.53;;;6.65;70.07
52441;BME280;39611;46.062;8.950;2023-02-28T15:00:34;96760.56;;;6.67;70.69
52441;BME280;39611;46.062;8.950;2023-02-28T15:03:22;96766.41;;;6.69;70.16
52441;BME280;39611;46.062;8.950;2023-02-28T15:06:00;96768.38;;;6.62;70.41
52441;BME280;39611;46.062;8.950;2023-02-28T15:08:26;96756.19;;;6.73;69.05
52441;BME280;39611;46.062;8.950;2023-02-28T15:10:58;96768.03;;;6.75;69.02